Main page
METAR-TAF:

METAR-TAF

Airports :

Kiruna Airport

Kiruna, Sweden

latitude: 67-49N, longitude: 020-20E, elevation: 452 m

Current weather observation

The report was made 29 minutes ago, at 15:50 UTC
Wind 7 kt from the East/Northeast
Temperature 12°C
Humidity 88%
Pressure 1010 hPa
Visibility 10 km or more

METAR: ESNQ 151550Z AUTO 06007KT 9999 OVC057/// 12/10 Q1010

Time: 18:19 (16:19 UTC)

Forecast

The report was made 22 hours and 49 minutes ago, at 17:30 UTC
Forecast valid from 14 at 18 UTC to 14 at 21 UTC
Wind 10 kt from the South
Visibility 10 km or more
Scattered clouds at a height of 4500 ft
Probability 40%
from 14 at 18 UTC to 14 at 19 UTC
Broken clouds at a height of 5000 ft, Cumulonimbus.
rain
Becoming
from 14 at 18 UTC to 14 at 20 UTC
Wind 3 kt from variable directions

TAF: ESNQ 141730Z 1418/1421 19010KT 9999 SCT045 PROB40 1418/1419 RA BKN050CB BECMG 1418/1420 VRB03KT

Weather observations and forecasts of more than 4000 airports (METAR and TAF reports).

The available stations are represented by yellow and red dots on the map.

Hover mouse over dot to see the name of the station.

Then click to see weather observations and forecasts.

To change the map : click on the green buttons with a black cross to zoom in, on the green button with a dash to zoom out, or on the green arrows for adjacent maps.


METAR-TAF: